EmailTwitter


Surface observations / Quebec / CYUL (71627)

Regions: Quebec | Canada | USA | Europe | France | UK | Elsewhere
Station
Display
Info & Location for CYUL (71627) | Help decoding METAR

Weather Conditions observed on 2019/11/15 at 20:14 UTC at MONTREAL INTL A, QB (CYUL)

Sky conditions: partly cloudy.

Obstruction(s) to Vision: light snow.

Temperature: 0.0 Celsius.

Dewpoint: -3.0 Celsius.

Relative Humidity: 80%

Windchill Factor: -6.

Windchill Factor (Gusts): -7.

Winds: West at 22 km/h or 12 knots.

Gust: 39 km/h or 21 knots.

Mean Sea level Pressure: 101.58 kilopascals.

Altimeter Setting (QNH): 101.56 kilopascals or 29.99 inches of mercury.

Horizontal visibility: 15.00 statute miles or 24.00 kilometers.

Height of the Ceiling: 1341 metres ( 4400 feet ).

Coded METAR:

CYUL 152014Z 28012G21KT 15SM -SN FEW014 FEW025 BKN044 OVC075 M00/M03 A2999 RMK

SF1SC2SC3AS2 SF TR SLP158=